createdAt,value
2018-08-24T00:02:19.927Z,3.37
2018-08-24T00:04:48.350Z,3.70
2018-08-24T00:07:16.561Z,3.07
2018-08-24T00:09:44.906Z,3.60
2018-08-24T00:12:13.084Z,3.73
2018-08-24T00:14:41.282Z,3.93
2018-08-24T00:17:14.810Z,3.30
2018-08-24T00:19:43.017Z,3.60
2018-08-24T00:22:11.414Z,3.40
2018-08-24T00:24:39.730Z,3.93
2018-08-24T00:27:08.024Z,3.73
2018-08-24T00:29:36.200Z,3.60
2018-08-24T00:32:04.363Z,3.63
2018-08-24T00:34:32.557Z,3.90
2018-08-24T00:37:00.955Z,4.00
2018-08-24T00:39:29.172Z,4.40
2018-08-24T00:41:57.347Z,4.40
2018-08-24T00:44:25.752Z,4.37
2018-08-24T00:46:54.560Z,3.73
2018-08-24T00:49:23.121Z,3.50
2018-08-24T00:51:51.282Z,3.57
2018-08-24T00:54:19.465Z,3.47
2018-08-24T00:56:47.881Z,3.37
2018-08-24T00:59:16.105Z,3.17
2018-08-24T01:01:44.277Z,4.03
2018-08-24T01:04:12.986Z,3.50
2018-08-24T01:06:41.157Z,3.93
2018-08-24T01:09:09.353Z,4.17
2018-08-24T01:11:42.871Z,4.77
2018-08-24T01:14:11.028Z,4.03
2018-08-24T01:16:44.504Z,4.07
2018-08-24T01:19:12.789Z,3.93
2018-08-24T01:21:40.946Z,3.87
2018-08-24T01:24:09.114Z,4.00
2018-08-24T01:26:37.287Z,3.73
2018-08-24T01:29:05.507Z,3.53
2018-08-24T01:31:33.656Z,3.17
2018-08-24T01:34:02.312Z,3.50
2018-08-24T01:36:30.513Z,3.67
2018-08-24T01:38:59.018Z,3.60
2018-08-24T01:41:27.156Z,3.80
2018-08-24T01:43:55.361Z,4.10
2018-08-24T01:46:23.511Z,3.70
2018-08-24T01:48:51.717Z,3.70
2018-08-24T01:51:19.882Z,3.77
2018-08-24T01:53:48.048Z,3.77
2018-08-24T01:56:16.247Z,4.43
2018-08-24T01:58:44.412Z,4.33
2018-08-24T02:01:12.602Z,4.73
2018-08-24T02:03:40.817Z,4.37
2018-08-24T02:06:09.014Z,4.63
2018-08-24T02:08:37.935Z,5.10
2018-08-24T02:11:11.640Z,5.00
2018-08-24T02:13:46.270Z,4.50
2018-08-24T02:16:14.433Z,4.90
2018-08-24T02:18:47.913Z,5.10
2018-08-24T02:21:21.485Z,5.37
2018-08-24T02:23:49.674Z,5.23
2018-08-24T02:26:17.977Z,4.73
2018-08-24T02:28:46.197Z,4.30
2018-08-24T02:31:15.368Z,4.77
2018-08-24T02:33:43.536Z,4.23
2018-08-24T02:36:11.833Z,4.83
2018-08-24T02:38:40.415Z,4.87
2018-08-24T02:41:08.647Z,4.30
2018-08-24T02:43:36.890Z,4.80
2018-08-24T02:46:05.137Z,4.37
2018-08-24T02:48:33.619Z,5.00
2018-08-24T02:51:01.825Z,5.60
2018-08-24T02:53:30.043Z,5.10
2018-08-24T02:55:58.245Z,5.07
2018-08-24T02:58:26.436Z,5.70
2018-08-24T03:00:54.638Z,4.30
2018-08-24T03:03:22.884Z,4.93
2018-08-24T03:05:51.078Z,5.30
2018-08-24T03:08:19.328Z,4.60
2018-08-24T03:10:47.506Z,5.30
2018-08-24T03:13:15.719Z,5.10
2018-08-24T03:15:43.920Z,5.30
2018-08-24T03:18:12.090Z,5.27
2018-08-24T03:20:40.339Z,5.40
2018-08-24T03:23:08.590Z,5.70
2018-08-24T03:25:36.800Z,5.67
2018-08-24T03:28:05.024Z,5.17
2018-08-24T03:30:33.240Z,5.83
2018-08-24T03:33:01.434Z,5.37
2018-08-24T03:35:29.717Z,5.27
2018-08-24T03:37:57.936Z,5.80
2018-08-24T03:40:26.221Z,4.80
2018-08-24T03:42:54.414Z,5.30
2018-08-24T03:45:22.618Z,4.80
2018-08-24T03:47:50.792Z,4.90
2018-08-24T03:50:19.033Z,4.63
2018-08-24T03:52:47.259Z,5.10
2018-08-24T03:55:15.527Z,5.67
2018-08-24T03:57:43.700Z,5.33
2018-08-24T04:00:17.712Z,5.37
2018-08-24T04:02:46.387Z,4.80
2018-08-24T04:05:15.040Z,4.87
2018-08-24T04:07:43.645Z,4.50
2018-08-24T04:10:11.809Z,5.00
2018-08-24T04:12:40.002Z,5.33
2018-08-24T04:15:08.225Z,5.43
2018-08-24T04:17:44.564Z,4.63
2018-08-24T04:20:13.614Z,5.77
2018-08-24T04:22:41.863Z,4.93
2018-08-24T04:25:10.491Z,5.03
2018-08-24T04:27:39.183Z,5.20
2018-08-24T04:30:07.872Z,5.00
2018-08-24T04:32:36.117Z,4.70
2018-08-24T04:35:04.768Z,4.90
2018-08-24T04:37:32.969Z,4.50
2018-08-24T04:40:01.139Z,4.47
2018-08-24T04:42:29.354Z,5.00
2018-08-24T04:44:57.537Z,4.87
2018-08-24T04:47:25.742Z,5.03
2018-08-24T04:49:54.449Z,4.90
2018-08-24T04:52:23.050Z,4.93
2018-08-24T04:54:51.274Z,5.13
2018-08-24T04:57:19.728Z,5.37
2018-08-24T04:59:47.955Z,5.13
2018-08-24T05:02:16.146Z,4.80
2018-08-24T05:04:44.341Z,5.03
2018-08-24T05:07:12.598Z,5.13
2018-08-24T05:09:40.760Z,5.10
2018-08-24T05:12:09.020Z,5.10
2018-08-24T05:14:37.209Z,5.13
2018-08-24T05:17:05.397Z,5.10
2018-08-24T05:19:33.586Z,6.03
2018-08-24T05:22:01.783Z,5.10
2018-08-24T05:24:29.936Z,5.57
2018-08-24T05:26:58.204Z,5.20
2018-08-24T05:29:26.370Z,5.10
2018-08-24T05:31:54.579Z,5.50
2018-08-24T05:34:22.768Z,4.90
2018-08-24T05:36:50.941Z,5.03
2018-08-24T05:39:19.130Z,4.67
2018-08-24T05:41:47.342Z,5.03
2018-08-24T05:44:15.547Z,5.20
2018-08-24T05:46:43.759Z,4.73
2018-08-24T05:49:11.934Z,4.30
2018-08-24T05:51:40.183Z,4.30
2018-08-24T05:54:08.387Z,4.37
2018-08-24T05:56:36.569Z,4.67
2018-08-24T05:59:04.812Z,4.70
2018-08-24T06:01:33.007Z,4.17
2018-08-24T06:04:01.276Z,3.90
2018-08-24T06:06:29.504Z,3.57
2018-08-24T06:09:03.099Z,4.10
2018-08-24T06:11:31.285Z,3.17
2018-08-24T06:13:59.490Z,4.60
2018-08-24T06:16:27.652Z,3.80
2018-08-24T06:18:55.898Z,3.60
2018-08-24T06:21:24.070Z,3.37
2018-08-24T06:23:52.268Z,3.20
2018-08-24T06:26:20.513Z,3.60
2018-08-24T06:28:48.755Z,4.10
2018-08-24T06:31:16.978Z,3.60
2018-08-24T06:33:45.231Z,3.73
2018-08-24T06:36:13.418Z,3.60
2018-08-24T06:38:41.617Z,3.23
2018-08-24T06:41:09.800Z,4.33
2018-08-24T06:43:38.036Z,3.23
2018-08-24T06:46:06.272Z,3.60
2018-08-24T06:48:34.461Z,3.80
2018-08-24T06:51:02.623Z,3.47
2018-08-24T06:53:30.906Z,3.47
2018-08-24T06:55:59.117Z,3.83
2018-08-24T06:58:27.411Z,3.30
2018-08-24T07:00:55.591Z,3.50
2018-08-24T07:03:23.797Z,3.93
2018-08-24T07:05:52.091Z,3.27
2018-08-24T07:08:21.062Z,3.33
2018-08-24T07:10:49.282Z,3.23
2018-08-24T07:13:17.568Z,4.10
2018-08-24T07:15:45.772Z,4.10
2018-08-24T07:18:14.074Z,4.20
2018-08-24T07:20:42.304Z,3.03
2018-08-24T07:23:10.485Z,4.10
2018-08-24T07:25:38.706Z,3.63
2018-08-24T07:28:06.942Z,4.07
2018-08-24T07:30:35.107Z,3.40
2018-08-24T07:33:03.321Z,3.47
2018-08-24T07:35:31.513Z,2.87
2018-08-24T07:37:59.685Z,3.47
2018-08-24T07:40:27.904Z,3.70
2018-08-24T07:42:56.092Z,4.00
2018-08-24T07:45:24.266Z,3.30
2018-08-24T07:47:52.472Z,3.50
2018-08-24T07:50:20.657Z,4.10
2018-08-24T07:52:48.806Z,3.50
2018-08-24T07:55:16.976Z,3.27
2018-08-24T07:57:45.179Z,4.17
2018-08-24T08:00:13.340Z,3.27
2018-08-24T08:02:44.391Z,3.77
2018-08-24T08:05:12.563Z,3.70
2018-08-24T08:07:40.724Z,2.87
2018-08-24T08:10:09.057Z,3.40
2018-08-24T08:12:37.290Z,3.90
2018-08-24T08:15:06.381Z,3.57
2018-08-24T08:17:34.703Z,3.77
2018-08-24T08:20:02.901Z,3.70
2018-08-24T08:22:31.063Z,4.20
2018-08-24T08:24:59.239Z,4.30
2018-08-24T08:27:27.432Z,4.20
2018-08-24T08:29:59.672Z,4.50
2018-08-24T08:32:28.560Z,4.10
2018-08-24T08:34:56.726Z,4.13
2018-08-24T08:37:25.084Z,4.20
2018-08-24T08:39:57.566Z,3.77
2018-08-24T08:42:25.849Z,3.83
2018-08-24T08:44:54.094Z,3.97
2018-08-24T08:47:22.273Z,3.90
2018-08-24T08:49:50.481Z,4.30
2018-08-24T08:52:18.664Z,4.07
2018-08-24T08:54:46.891Z,4.20
2018-08-24T08:57:15.102Z,3.67
2018-08-24T08:59:43.309Z,3.97
2018-08-24T09:02:11.692Z,4.20
2018-08-24T09:04:40.990Z,4.60
2018-08-24T09:07:09.249Z,4.43
2018-08-24T09:09:37.907Z,4.20
2018-08-24T09:12:06.645Z,4.00
2018-08-24T09:14:35.126Z,4.60
2018-08-24T09:17:08.816Z,5.23
2018-08-24T09:19:42.376Z,4.47
2018-08-24T09:22:15.934Z,3.83
2018-08-24T09:24:49.501Z,3.97
2018-08-24T09:27:23.133Z,4.17
2018-08-24T09:29:51.309Z,4.70
2018-08-24T09:32:19.482Z,3.70
2018-08-24T09:34:47.747Z,4.90
2018-08-24T09:37:21.443Z,5.20
2018-08-24T09:39:49.648Z,4.33
2018-08-24T09:42:17.808Z,4.57
2018-08-24T09:44:46.044Z,4.75
2018-08-24T09:47:19.593Z,4.57
2018-08-24T09:49:48.130Z,4.70
2018-08-24T09:52:21.707Z,4.53
2018-08-24T09:54:49.962Z,5.40
2018-08-24T09:57:18.215Z,5.47
2018-08-24T09:59:46.456Z,5.60
2018-08-24T10:02:19.992Z,5.90
2018-08-24T10:04:53.618Z,5.00
2018-08-24T10:07:33.724Z,5.47
2018-08-24T10:10:02.644Z,5.87
2018-08-24T10:12:36.261Z,5.50
2018-08-24T10:15:05.361Z,4.80
2018-08-24T10:17:33.561Z,6.10
2018-08-24T10:20:01.827Z,4.83
2018-08-24T10:22:30.431Z,5.20
2018-08-24T10:24:58.622Z,5.40
2018-08-24T10:27:26.885Z,4.80
2018-08-24T10:29:55.111Z,4.70
2018-08-24T10:32:23.363Z,5.30
2018-08-24T10:34:51.567Z,5.23
2018-08-24T10:37:19.772Z,5.00
2018-08-24T10:39:47.933Z,5.23
2018-08-24T10:42:16.133Z,6.33
2018-08-24T10:44:44.301Z,4.43
2018-08-24T10:47:12.528Z,4.80
2018-08-24T10:49:40.769Z,5.20
2018-08-24T10:52:08.979Z,4.83
2018-08-24T10:54:37.154Z,4.97
2018-08-24T10:57:05.409Z,6.77
2018-08-24T10:59:33.592Z,5.70
2018-08-24T11:02:01.891Z,5.37
2018-08-24T11:04:30.028Z,5.93
2018-08-24T11:06:58.245Z,6.40
2018-08-24T11:09:26.483Z,6.20
2018-08-24T11:11:54.718Z,5.80
2018-08-24T11:14:22.941Z,6.00
2018-08-24T11:16:51.141Z,6.20
2018-08-24T11:19:19.336Z,6.03
2018-08-24T11:21:47.651Z,6.00
2018-08-24T11:24:15.946Z,6.50
2018-08-24T11:26:44.154Z,5.83
2018-08-24T11:29:12.386Z,6.40
2018-08-24T11:31:40.571Z,7.37
2018-08-24T11:34:08.855Z,5.93
2018-08-24T11:36:37.053Z,6.63
2018-08-24T11:39:06.213Z,6.60
2018-08-24T11:41:34.430Z,6.53
2018-08-24T11:44:02.647Z,6.60
2018-08-24T11:46:30.857Z,6.57
2018-08-24T11:48:59.051Z,7.10
2018-08-24T11:51:27.256Z,7.20
2018-08-24T11:53:55.486Z,6.20
2018-08-24T11:56:23.728Z,6.23
2018-08-24T11:58:51.927Z,6.00
2018-08-24T12:01:20.160Z,5.90
2018-08-24T12:03:48.379Z,6.70
2018-08-24T12:06:16.615Z,5.80
2018-08-24T12:08:44.837Z,6.93
2018-08-24T12:11:13.008Z,5.77
2018-08-24T12:13:41.246Z,7.27
2018-08-24T12:16:09.391Z,6.77
2018-08-24T12:18:37.658Z,5.80
2018-08-24T12:21:05.924Z,6.43
2018-08-24T12:23:34.037Z,6.53
2018-08-24T12:26:02.238Z,6.73
2018-08-24T12:28:30.433Z,7.13
2018-08-24T12:30:58.652Z,6.77
2018-08-24T12:33:26.903Z,6.47
2018-08-24T12:35:55.096Z,7.00
2018-08-24T12:38:23.356Z,7.40
2018-08-24T12:40:51.534Z,6.90
2018-08-24T12:43:19.767Z,6.47
2018-08-24T12:45:47.950Z,6.90
2018-08-24T12:48:16.137Z,7.00
2018-08-24T12:50:44.352Z,5.60
2018-08-24T12:53:12.555Z,6.63
2018-08-24T12:55:40.786Z,5.30
2018-08-24T12:58:09.007Z,6.60
2018-08-24T13:00:37.183Z,6.40
2018-08-24T13:03:05.429Z,6.30
2018-08-24T13:05:33.655Z,6.10
2018-08-24T13:08:01.877Z,6.13
2018-08-24T13:10:30.091Z,6.03
2018-08-24T13:12:58.306Z,6.53
2018-08-24T13:15:26.530Z,6.57
2018-08-24T13:17:54.835Z,5.83
2018-08-24T13:20:23.002Z,6.03
2018-08-24T13:22:51.240Z,6.60
2018-08-24T13:25:19.391Z,6.63
2018-08-24T13:27:47.619Z,6.33
2018-08-24T13:30:15.816Z,6.20
2018-08-24T13:32:44.053Z,6.77
2018-08-24T13:35:12.262Z,5.90
2018-08-24T13:37:40.477Z,6.90
2018-08-24T13:40:08.650Z,6.33
2018-08-24T13:42:36.872Z,6.23
2018-08-24T13:45:05.097Z,5.80
2018-08-24T13:47:33.423Z,5.20
2018-08-24T13:50:01.574Z,5.93
2018-08-24T13:52:29.805Z,4.93
2018-08-24T13:54:58.005Z,6.17
2018-08-24T13:57:26.223Z,5.27
2018-08-24T13:59:54.505Z,5.30
2018-08-24T14:02:22.667Z,5.90
2018-08-24T14:04:50.864Z,5.30
2018-08-24T14:07:19.073Z,5.70
2018-08-24T14:09:47.279Z,5.73
2018-08-24T14:12:15.470Z,5.33
2018-08-24T14:14:43.695Z,5.90
2018-08-24T14:17:11.899Z,5.77
2018-08-24T14:19:40.121Z,5.87
2018-08-24T14:22:08.305Z,5.27
2018-08-24T14:24:36.493Z,5.80
2018-08-24T14:27:04.683Z,5.63
2018-08-24T14:29:32.848Z,5.80
2018-08-24T14:32:01.054Z,5.50
2018-08-24T14:34:29.286Z,5.63
2018-08-24T14:36:57.461Z,6.20
2018-08-24T14:39:25.662Z,6.27
2018-08-24T14:41:53.828Z,6.47
2018-08-24T14:44:22.054Z,5.80
2018-08-24T14:46:50.241Z,6.33
2018-08-24T14:49:18.481Z,6.20
2018-08-24T14:51:46.668Z,6.47
2018-08-24T14:54:14.934Z,6.53
2018-08-24T14:56:43.276Z,7.40
2018-08-24T14:59:11.520Z,6.90
2018-08-24T15:01:39.709Z,7.80
2018-08-24T15:04:07.953Z,8.80
2018-08-24T15:06:36.161Z,9.60
2018-08-24T15:09:06.449Z,9.13
2018-08-24T15:11:35.013Z,9.50
2018-08-24T15:14:03.502Z,10.40
2018-08-24T15:16:32.056Z,10.40
2018-08-24T15:19:00.463Z,10.27
2018-08-24T15:21:28.929Z,9.90
2018-08-24T15:23:57.426Z,10.30
2018-08-24T15:26:25.842Z,10.17
2018-08-24T15:28:54.260Z,9.77
2018-08-24T15:31:22.669Z,9.50
2018-08-24T15:33:51.121Z,10.10
2018-08-24T15:36:19.602Z,10.73
2018-08-24T15:38:48.130Z,10.67
2018-08-24T15:41:16.593Z,10.43
2018-08-24T15:43:45.103Z,10.07
2018-08-24T15:46:13.529Z,12.37
2018-08-24T15:48:42.167Z,12.73
2018-08-24T15:51:10.735Z,13.33
2018-08-24T15:53:39.340Z,12.50
2018-08-24T15:56:07.907Z,11.87
2018-08-24T15:58:36.369Z,13.30
2018-08-24T16:01:04.922Z,13.47
2018-08-24T16:03:33.343Z,14.93
2018-08-24T16:06:02.006Z,15.53
2018-08-24T16:08:30.650Z,16.70
2018-08-24T16:10:59.224Z,14.60
2018-08-24T16:13:27.712Z,13.43
2018-08-24T16:15:56.146Z,11.77
2018-08-24T16:18:25.193Z,11.47
2018-08-24T16:20:54.516Z,10.33
2018-08-24T16:23:23.144Z,10.53
2018-08-24T16:25:51.661Z,10.00
2018-08-24T16:28:20.590Z,10.70
2018-08-24T16:30:48.992Z,10.50
2018-08-24T16:33:18.253Z,9.93
2018-08-24T16:35:47.155Z,10.60
2018-08-24T16:38:16.209Z,10.30
2018-08-24T16:40:44.718Z,9.80
2018-08-24T16:43:13.787Z,10.67
2018-08-24T16:45:42.113Z,11.60
2018-08-24T16:48:10.392Z,10.50
2018-08-24T16:50:38.705Z,10.60
2018-08-24T16:53:06.933Z,10.80
2018-08-24T16:55:35.174Z,10.97
2018-08-24T16:58:03.486Z,10.57
2018-08-24T17:00:31.734Z,9.47
2018-08-24T17:02:59.964Z,10.80
2018-08-24T17:05:28.218Z,11.43
2018-08-24T17:07:56.461Z,10.70
2018-08-24T17:10:24.991Z,11.17
2018-08-24T17:12:53.263Z,10.70
2018-08-24T17:15:21.416Z,10.73
2018-08-24T17:17:49.599Z,10.63
2018-08-24T17:20:17.811Z,11.43
2018-08-24T17:22:46.037Z,10.97
2018-08-24T17:25:14.355Z,10.60
2018-08-24T17:27:42.556Z,11.60
2018-08-24T17:30:10.769Z,11.63
2018-08-24T17:32:38.949Z,12.47
2018-08-24T17:35:07.197Z,11.60
2018-08-24T17:37:35.612Z,12.73
2018-08-24T17:40:03.903Z,12.80
2018-08-24T17:42:32.209Z,13.70
2018-08-24T17:45:00.414Z,13.63
2018-08-24T17:47:28.664Z,13.20
2018-08-24T17:49:57.267Z,10.80
2018-08-24T17:52:25.590Z,9.03
2018-08-24T17:54:53.966Z,9.50
2018-08-24T17:57:22.237Z,8.87
2018-08-24T17:59:51.509Z,9.80
2018-08-24T18:02:19.748Z,8.63
2018-08-24T18:04:48.010Z,8.90
2018-08-24T18:07:16.410Z,8.97
2018-08-24T18:09:44.578Z,9.37
2018-08-24T18:12:12.808Z,8.30
2018-08-24T18:14:41.032Z,10.20
2018-08-24T18:17:09.264Z,9.73
2018-08-24T18:19:37.620Z,8.97
2018-08-24T18:22:05.908Z,11.20
2018-08-24T18:24:34.125Z,10.97
2018-08-24T18:27:02.388Z,10.73
2018-08-24T18:29:30.591Z,10.97
2018-08-24T18:31:58.836Z,11.80
2018-08-24T18:34:27.072Z,9.80
2018-08-24T18:36:55.558Z,10.33
2018-08-24T18:39:23.756Z,10.67
2018-08-24T18:41:52.001Z,11.00
2018-08-24T18:44:20.220Z,11.20
2018-08-24T18:46:48.456Z,11.47
2018-08-24T18:49:16.685Z,10.23
2018-08-24T18:51:44.935Z,10.43
2018-08-24T18:54:13.194Z,11.10
2018-08-24T18:56:41.499Z,9.40
2018-08-24T18:59:09.664Z,10.10
2018-08-24T19:01:37.879Z,8.47
2018-08-24T19:04:06.119Z,10.33
2018-08-24T19:06:34.312Z,9.47
2018-08-24T19:09:03.525Z,10.03
2018-08-24T19:11:37.123Z,9.50
2018-08-24T19:14:05.349Z,9.60
2018-08-24T19:16:33.565Z,10.27
2018-08-24T19:19:07.030Z,9.97
2018-08-24T19:21:42.237Z,9.83
2018-08-24T19:24:10.747Z,10.00
2018-08-24T19:26:39.000Z,10.30
2018-08-24T19:29:12.620Z,11.10
2018-08-24T19:31:40.870Z,11.80
2018-08-24T19:34:09.650Z,10.27
2018-08-24T19:36:37.869Z,10.37
2018-08-24T19:39:07.876Z,11.50
2018-08-24T19:41:41.412Z,10.80
2018-08-24T19:44:09.659Z,10.97
2018-08-24T19:46:37.907Z,10.90
2018-08-24T19:49:11.860Z,10.30
2018-08-24T19:51:40.083Z,11.10
2018-08-24T19:54:08.310Z,10.73
2018-08-24T19:56:36.744Z,10.57
2018-08-24T19:59:06.693Z,10.67
2018-08-24T20:01:35.436Z,11.33
2018-08-24T20:04:04.656Z,11.47
2018-08-24T20:06:38.184Z,11.10
2018-08-24T20:09:14.308Z,11.40
2018-08-24T20:11:43.232Z,10.80
2018-08-24T20:14:11.513Z,11.37
2018-08-24T20:16:45.124Z,11.43
2018-08-24T20:19:13.346Z,11.30
2018-08-24T20:21:41.501Z,11.27
2018-08-24T20:24:09.805Z,11.90
2018-08-24T20:26:38.000Z,12.57
2018-08-24T20:29:06.225Z,11.80
2018-08-24T20:31:34.458Z,11.93
2018-08-24T20:34:02.671Z,12.43
2018-08-24T20:36:30.889Z,12.20
2018-08-24T20:38:59.093Z,13.00
2018-08-24T20:41:27.264Z,13.10
2018-08-24T20:43:55.497Z,12.90
2018-08-24T20:46:23.701Z,12.07
2018-08-24T20:48:51.912Z,11.00
2018-08-24T20:51:20.140Z,12.70
2018-08-24T20:53:48.341Z,12.10
2018-08-24T20:56:16.540Z,12.63
2018-08-24T20:58:44.717Z,12.77
2018-08-24T21:01:12.931Z,13.80
2018-08-24T21:03:41.133Z,12.80
2018-08-24T21:06:09.343Z,12.03
2018-08-24T21:08:37.571Z,12.43
2018-08-24T21:11:05.846Z,11.90
2018-08-24T21:13:34.100Z,12.57
2018-08-24T21:16:02.318Z,14.10
2018-08-24T21:18:30.524Z,13.60
2018-08-24T21:20:58.804Z,13.00
2018-08-24T21:23:27.065Z,13.50
2018-08-24T21:25:55.321Z,12.20
2018-08-24T21:28:23.543Z,13.23
2018-08-24T21:30:51.794Z,12.77
2018-08-24T21:33:19.998Z,12.30
2018-08-24T21:35:48.220Z,13.50
2018-08-24T21:38:16.442Z,14.60
2018-08-24T21:40:44.699Z,12.60
2018-08-24T21:43:12.909Z,12.77
2018-08-24T21:45:41.136Z,13.70
2018-08-24T21:48:09.432Z,13.87
2018-08-24T21:50:37.662Z,13.40
2018-08-24T21:53:05.869Z,13.57
2018-08-24T21:55:34.099Z,14.03
2018-08-24T21:58:02.350Z,13.73
2018-08-24T22:00:30.637Z,14.33
2018-08-24T22:02:58.839Z,14.70
2018-08-24T22:05:27.045Z,13.07
2018-08-24T22:07:55.269Z,12.93
2018-08-24T22:10:23.485Z,13.13
2018-08-24T22:12:51.705Z,14.60
2018-08-24T22:15:19.919Z,13.47
2018-08-24T22:17:48.124Z,13.07
2018-08-24T22:20:16.347Z,15.20
2018-08-24T22:22:44.574Z,14.20
2018-08-24T22:25:12.776Z,14.70
2018-08-24T22:27:41.003Z,14.43
2018-08-24T22:30:09.259Z,13.13
2018-08-24T22:32:37.485Z,14.40
2018-08-24T22:35:05.711Z,12.60
2018-08-24T22:37:33.934Z,12.70
2018-08-24T22:40:02.160Z,14.20
2018-08-24T22:42:30.397Z,14.63
2018-08-24T22:44:58.622Z,13.70
2018-08-24T22:47:26.835Z,13.33
2018-08-24T22:49:55.030Z,13.67
2018-08-24T22:52:23.250Z,12.80
2018-08-24T22:54:51.447Z,12.83
2018-08-24T22:57:19.734Z,12.97
2018-08-24T22:59:48.019Z,13.47
2018-08-24T23:02:16.264Z,14.63
2018-08-24T23:04:44.544Z,13.90
2018-08-24T23:07:12.765Z,13.20
2018-08-24T23:09:40.950Z,14.30
2018-08-24T23:12:09.158Z,15.03
2018-08-24T23:14:37.392Z,13.33
2018-08-24T23:17:05.629Z,12.90
2018-08-24T23:19:33.863Z,12.80
2018-08-24T23:22:02.088Z,13.90
2018-08-24T23:24:30.298Z,13.30
2018-08-24T23:26:58.554Z,13.03
2018-08-24T23:29:26.758Z,14.03
2018-08-24T23:31:54.959Z,13.77
2018-08-24T23:34:23.157Z,14.53
2018-08-24T23:36:51.386Z,14.30
2018-08-24T23:39:19.589Z,13.93
2018-08-24T23:41:47.819Z,14.43
2018-08-24T23:44:16.078Z,13.60
2018-08-24T23:46:44.330Z,14.10
2018-08-24T23:49:12.520Z,13.43
2018-08-24T23:51:40.754Z,13.70
2018-08-24T23:54:08.975Z,15.40
2018-08-24T23:56:37.172Z,14.10
2018-08-24T23:59:05.401Z,14.90
